Skip to main content.
Our real time weather data display below is updated continuously via our 24/7 live data feed.
 TIME   TEMPERATURE   WINDSPEED   DIRECTION   HUMIDITY   BAROMETER   RAINFALL 
10:55 14.0°C (57.2°F) 20.4 kmh (12.7 mph) NNW 67% 1013.9hPa (29.94 inHg) 0.0mm (0.00 in.)
9:55 13.0°C (55.4 °F) 16.7 kmh (10.4 mph) N 76% 1012.9hPa (29.91 inHg) 0.0mm (0.00 in.)
8:55 13.0°C (55.4 °F) 11.1 kmh (6.9 mph) NNE 81% 1011.9hPa (29.88 inHg) 0.0mm (0.00 in.)
7:55 12.0°C (53.6 °F) 18.5 kmh (11.5 mph) NNW 76% 1011.9hPa (29.88 inHg) 0.0mm (0.00 in.)
6:55 12.0°C (53.6 °F) 24.1 kmh (15.0 mph) NW 81% 1010.8hPa (29.85 inHg) 0.0mm (0.00 in.)
5:55 11.0°C (51.8 °F) 25.9 kmh (16.1 mph) NW 81% 1010.8hPa (29.85 inHg) 0.0mm (0.00 in.)
4:55 12.0°C (53.6 °F) 35.2 kmh (21.9 mph) NW 76% 1010.2hPa (29.83 inHg) 0.0mm (0.00 in.)
3:55 12.0°C (53.6 °F) 40.7 kmh (25.3 mph) NW 71% 1010.2hPa (29.83 inHg) 0.0mm (0.00 in.)
2:55 13.0°C (55.4 °F) 40.7 kmh (25.3 mph) WNW 71% 1010.2hPa (29.83 inHg) 0.0mm (0.00 in.)
1:55 12.0°C (53.6 °F) 48.2 kmh (29.9 mph) WNW 81% 1010.2hPa (29.83 inHg) 0.0mm (0.00 in.)
0:55 12.0°C (53.6 °F) 37.0 kmh (23.0 mph) WNW 81% 1010.2hPa (29.83 inHg) 0.0mm (0.00 in.)
23:55 11.0°C (51.8 °F) 42.6 kmh (26.5 mph) WNW 81% 1010.8hPa (29.85 inHg) 0.0mm (0.00 in.)
22:55 13.0°C (55.4 °F) 48.2 kmh (29.9 mph) WNW 66% 1011.9hPa (29.88 inHg) 0.0mm (0.00 in.)
21:55 13.0°C (55.4 °F) 40.7 kmh (25.3 mph) WNW 66% 1011.9hPa (29.88 inHg) 0.0mm (0.00 in.)
20:55 14.0°C (57.2 °F) 40.7 kmh (25.3 mph) WNW 58% 1011.9hPa (29.88 inHg) 0.0mm (0.00 in.)
19:55 13.0°C (55.4 °F) 33.3 kmh (20.7 mph) WNW 66% 1011.9hPa (29.88 inHg) 0.0mm (0.00 in.)
18:55 14.0°C (57.2 °F) 31.5 kmh (19.6 mph) WNW 67% 1011.9hPa (29.88 inHg) 0.0mm (0.00 in.)
17:55 14.0°C (57.2 °F) 33.3 kmh (20.7 mph) NW 67% 1011.9hPa (29.88 inHg) 0.0mm (0.00 in.)
16:55 14.0°C (57.2 °F) 38.9 kmh (24.2 mph) WNW 71% 1011.9hPa (29.88 inHg) 0.0mm (0.00 in.)
15:55 15.0°C (59.0 °F) 38.9 kmh (24.2 mph) WNW 67% 1011.9hPa (29.88 inHg) 0.0mm (0.00 in.)
14:55 15.0°C (59.0 °F) 33.3 kmh (20.7 mph) WNW 67% 1011.9hPa (29.88 inHg) 0.0mm (0.00 in.)
13:55 15.0°C (59.0 °F) 31.5 kmh (19.6 mph) NW 76% 1011.9hPa (29.88 inHg) 0.0mm (0.00 in.)
12:55 16.0°C (60.8 °F) 35.2 kmh (21.9 mph) WNW 72% 1012.9hPa (29.91 inHg) 0.0mm (0.00 in.)
11:55 14.0°C (57.2 °F) 33.3 kmh (20.7 mph) NW 82% 1013.9hPa (29.94 inHg) 0.0mm (0.00 in.)